Time;durP1;ratioP1;P1;durP2;ratioP2;P2;SDS_P1;SDS_P2;PMS_P1;PMS_P2;Temp;Humidity;BMP_temperature;BMP_pressure;BME280_temperature;BME280_humidity;BME280_pressure;Samples;Min_cycle;Max_cycle;Signal;HPM_P1;HPM_P2
2021/11/06 00:00:43;;;;;;;26.90;10.60;;;;;;;6.61;60.51;99845.16;113352;1192;106509;-72
2021/11/06 00:03:17;;;;;;;23.80;11.00;;;;;;;6.63;60.58;99842.27;115189;1192;97027;-72
2021/11/06 00:05:44;;;;;;;22.20;10.40;;;;;;;6.66;60.53;99844.78;115345;1184;96813;-73
2021/11/06 00:08:12;;;;;;;22.80;11.10;;;;;;;6.69;60.55;99844.64;113887;1192;112387;-74
2021/11/06 00:10:40;;;;;;;21.60;10.20;;;;;;;6.73;60.59;99843.42;113831;1192;98972;-72
2021/11/06 00:13:08;;;;;;;22.70;11.30;;;;;;;6.76;60.51;99840.09;113644;1192;106506;-72
2021/11/06 00:15:36;;;;;;;25.00;11.20;;;;;;;6.78;60.28;99838.45;113681;1192;99151;-72
2021/11/06 00:18:06;;;;;;;23.60;10.60;;;;;;;6.78;60.52;99840.53;113785;1192;96428;-71
2021/11/06 00:20:34;;;;;;;21.70;10.20;;;;;;;6.79;60.54;99845.98;113785;1192;112527;-72
2021/11/06 00:23:04;;;;;;;24.00;11.30;;;;;;;6.79;60.67;99847.04;113745;1192;98897;-71
2021/11/06 00:25:32;;;;;;;21.20;10.10;;;;;;;6.79;60.63;99849.13;113745;1192;106543;-69
2021/11/06 00:28:00;;;;;;;22.70;10.20;;;;;;;6.80;60.72;99852.98;113620;1192;99094;-71
2021/11/06 00:30:28;;;;;;;24.20;11.60;;;;;;;6.82;60.89;99853.95;113596;1192;98966;-71
2021/11/06 00:32:56;;;;;;;20.90;9.90;;;;;;;6.84;60.84;99856.34;113756;1192;111487;-70
2021/11/06 00:35:26;;;;;;;21.50;10.30;;;;;;;6.85;60.97;99858.92;113750;1192;98878;-71
2021/11/06 00:37:55;;;;;;;23.60;10.20;;;;;;;6.86;60.93;99860.48;113653;1193;107502;-72
2021/11/06 00:40:23;;;;;;;24.30;10.90;;;;;;;6.87;60.82;99866.59;113430;1193;99138;-71
2021/11/06 00:42:51;;;;;;;24.40;11.40;;;;;;;6.88;61.05;99862.16;113447;1193;99013;-71
2021/11/06 00:45:19;;;;;;;22.60;10.30;;;;;;;6.90;61.15;99862.44;113634;1192;112525;-69
2021/11/06 00:47:48;;;;;;;23.40;10.70;;;;;;;6.91;61.05;99861.69;113698;1192;98904;-71
2021/11/06 00:50:18;;;;;;;23.60;10.90;;;;;;;6.91;61.17;99862.75;113759;1192;107518;-71
2021/11/06 00:52:48;;;;;;;23.40;11.20;;;;;;;6.91;61.27;99861.83;113806;1192;99004;-73
2021/11/06 00:55:18;;;;;;;22.90;11.00;;;;;;;6.92;60.91;99864.26;113822;1192;98907;-73
2021/11/06 00:57:48;;;;;;;24.30;11.10;;;;;;;6.93;60.93;99867.40;113772;1193;111513;-73
2021/11/06 01:00:19;;;;;;;22.80;10.20;;;;;;;6.95;61.07;99865.72;113818;1192;98896;-73
2021/11/06 01:02:49;;;;;;;23.20;11.20;;;;;;;6.97;61.07;99869.16;113809;1193;107538;-75
2021/11/06 01:05:19;;;;;;;23.60;11.40;;;;;;;6.99;61.37;99871.69;113812;1191;99057;-74
2021/11/06 01:07:49;;;;;;;23.50;11.50;;;;;;;7.00;61.29;99875.87;113851;1193;96357;-73
2021/11/06 01:10:19;;;;;;;23.40;11.70;;;;;;;7.03;61.27;99876.48;113797;1192;112536;-74
2021/11/06 01:12:47;;;;;;;25.40;12.30;;;;;;;7.04;61.21;99875.89;113500;1194;99082;-72
2021/11/06 01:15:16;;;;;;;24.50;11.20;;;;;;;7.05;61.26;99877.77;113803;1184;107816;-73
2021/11/06 01:17:46;;;;;;;23.40;12.00;;;;;;;7.06;61.43;99876.34;113714;1192;99017;-73
2021/11/06 01:20:15;;;;;;;23.60;12.00;;;;;;;7.07;61.67;99877.53;113694;1192;98889;-72
2021/11/06 01:22:45;;;;;;;24.00;11.60;;;;;;;7.07;61.55;99883.16;113793;1193;112410;-73
2021/11/06 01:25:15;;;;;;;25.60;12.00;;;;;;;7.08;61.46;99878.38;113814;1192;98936;-73
2021/11/06 01:27:45;;;;;;;24.60;11.70;;;;;;;7.08;61.63;99877.84;113758;1193;107245;-72
2021/11/06 01:30:13;;;;;;;24.50;11.80;;;;;;;7.09;61.59;99876.53;113790;1193;96393;-73
2021/11/06 01:32:45;;;;;;;23.50;11.80;;;;;;;7.10;61.54;99874.73;113787;1192;98998;-75
2021/11/06 01:35:16;;;;;;;26.40;12.20;;;;;;;7.11;61.96;99873.11;113785;1193;112589;-73
2021/11/06 01:37:46;;;;;;;22.70;11.80;;;;;;;7.11;61.76;99877.34;113778;1193;98967;-73
2021/11/06 01:40:20;;;;;;;23.40;11.30;;;;;;;7.12;61.68;99878.89;113737;1193;107926;-72
2021/11/06 01:42:50;;;;;;;23.10;11.70;;;;;;;7.11;61.81;99882.27;113747;1192;98956;-74
2021/11/06 01:45:20;;;;;;;23.40;11.30;;;;;;;7.11;61.76;99885.83;113713;1192;98977;-73
2021/11/06 01:47:50;;;;;;;25.30;12.10;;;;;;;7.09;61.78;99888.39;113798;1192;112119;-72
2021/11/06 01:50:22;;;;;;;23.00;10.90;;;;;;;7.08;61.73;99892.11;113796;1192;98857;-72
2021/11/06 01:52:51;;;;;;;22.60;10.50;;;;;;;7.08;61.99;99892.29;113468;1193;107040;-72
2021/11/06 01:55:21;;;;;;;22.00;10.40;;;;;;;7.07;61.95;99891.63;113785;1193;99349;-71
2021/11/06 01:57:50;;;;;;;21.60;10.90;;;;;;;7.07;61.93;99894.66;113767;1193;99004;-72
2021/11/06 02:00:24;;;;;;;24.00;11.60;;;;;;;7.05;61.66;99895.24;113755;1192;112448;-74
2021/11/06 02:02:52;;;;;;;24.20;11.10;;;;;;;7.04;62.04;99892.83;113745;1193;96367;-73
2021/11/06 02:05:21;;;;;;;22.70;10.40;;;;;;;7.04;61.86;99894.08;113711;1193;108527;-73
2021/11/06 02:07:50;;;;;;;22.40;9.80;;;;;;;7.04;62.00;99894.42;113766;1193;96392;-73
2021/11/06 02:10:20;;;;;;;22.30;10.30;;;;;;;7.02;61.87;99891.48;113744;1192;99010;-74
2021/11/06 02:12:49;;;;;;;20.60;10.30;;;;;;;7.01;62.04;99894.73;113734;1193;113763;-73
2021/11/06 02:15:21;;;;;;;24.90;10.90;;;;;;;7.00;61.98;99894.77;113783;1193;98878;-73
2021/11/06 02:17:50;;;;;;;24.60;11.80;;;;;;;7.01;61.91;99898.06;113806;1192;108097;-72
2021/11/06 02:20:21;;;;;;;24.20;10.80;;;;;;;7.00;62.01;99894.23;113664;1193;98900;-72
2021/11/06 02:22:51;;;;;;;21.70;10.10;;;;;;;6.97;62.18;99888.32;113529;1193;98898;-72
2021/11/06 02:25:21;;;;;;;23.30;10.10;;;;;;;6.96;62.24;99893.14;113687;1193;112534;-71
2021/11/06 02:28:09;;;;;;;28.10;11.80;;;;;;;6.94;62.15;99897.11;113747;1193;99017;-72
2021/11/06 02:30:37;;;;;;;21.70;10.10;;;;;;;6.95;62.10;99902.75;113459;1196;107392;-71
2021/11/06 02:33:06;;;;;;;22.80;10.10;;;;;;;6.95;62.19;99901.34;113682;1192;98897;-71
2021/11/06 02:35:34;;;;;;;22.80;10.20;;;;;;;6.94;62.19;99906.63;113774;1192;98927;-71
2021/11/06 02:38:04;;;;;;;21.70;10.40;;;;;;;6.93;62.15;99903.55;113761;1192;112523;-72
2021/11/06 02:40:32;;;;;;;22.10;10.30;;;;;;;6.93;62.10;99907.06;113777;1193;99588;-74
2021/11/06 02:43:02;;;;;;;23.20;11.60;;;;;;;6.94;62.29;99913.01;113762;1193;108485;-73
2021/11/06 02:45:30;;;;;;;25.10;11.00;;;;;;;6.95;62.12;99912.61;113729;1192;96447;-71
2021/11/06 02:47:59;;;;;;;25.80;11.40;;;;;;;6.95;62.17;99912.61;113790;1193;98956;-71
2021/11/06 02:50:27;;;;;;;23.10;10.20;;;;;;;6.93;62.31;99914.66;113761;1193;112511;-72
2021/11/06 02:52:57;;;;;;;22.10;10.40;;;;;;;6.90;62.31;99919.36;113721;1192;98920;-72
2021/11/06 02:55:26;;;;;;;24.40;11.10;;;;;;;6.89;62.44;99925.40;113739;1193;107373;-76
2021/11/06 02:57:56;;;;;;;24.70;11.10;;;;;;;6.88;62.28;99926.14;113765;1193;99006;-71
2021/11/06 03:00:27;;;;;;;22.50;10.40;;;;;;;6.88;62.43;99929.15;113813;1192;98900;-72
2021/11/06 03:02:57;;;;;;;25.50;11.60;;;;;;;6.88;62.29;99929.86;113736;1193;113603;-72
2021/11/06 03:05:26;;;;;;;22.10;10.50;;;;;;;6.86;62.42;99928.89;113751;1193;98976;-72
2021/11/06 03:07:59;;;;;;;23.80;11.40;;;;;;;6.83;62.42;99927.21;113770;1192;105761;-72
2021/11/06 03:10:29;;;;;;;23.40;10.90;;;;;;;6.82;62.40;99933.61;113782;1192;99007;-73
2021/11/06 03:13:00;;;;;;;22.70;10.00;;;;;;;6.82;62.47;99930.47;113812;1193;98989;-72
2021/11/06 03:15:28;;;;;;;23.70;10.20;;;;;;;6.81;62.51;99934.20;113821;1193;112630;-74
2021/11/06 03:17:55;;;;;;;22.70;10.50;;;;;;;6.81;62.34;99935.27;113829;1193;97060;-72
2021/11/06 03:20:25;;;;;;;23.10;10.70;;;;;;;6.82;62.61;99941.20;113772;1193;105722;-72
2021/11/06 03:22:58;;;;;;;24.40;10.50;;;;;;;6.83;62.64;99940.48;113764;1192;98888;-71
2021/11/06 03:25:29;;;;;;;23.20;10.70;;;;;;;6.82;62.59;99942.96;113799;1193;96368;-71
2021/11/06 03:27:57;;;;;;;24.50;10.90;;;;;;;6.82;62.59;99944.20;113768;1193;112505;-72
2021/11/06 03:30:26;;;;;;;25.70;11.20;;;;;;;6.82;62.58;99945.77;113757;1193;99731;-71
2021/11/06 03:32:56;;;;;;;23.90;10.60;;;;;;;6.82;62.55;99945.08;113744;1193;107606;-71
2021/11/06 03:35:25;;;;;;;24.80;11.20;;;;;;;6.81;62.61;99947.09;113728;1193;98971;-71
2021/11/06 03:38:01;;;;;;;24.00;10.80;;;;;;;6.79;62.73;99948.74;113838;1192;98860;-70
2021/11/06 03:40:30;;;;;;;22.30;9.80;;;;;;;6.77;62.65;99953.05;113785;1193;112620;-71
2021/11/06 03:42:58;;;;;;;20.70;9.80;;;;;;;6.76;62.64;99951.67;113783;1192;99004;-72
2021/11/06 03:45:28;;;;;;;22.70;9.50;;;;;;;6.75;62.66;99954.88;113774;1193;107446;-71
2021/11/06 03:47:56;;;;;;;23.00;9.80;;;;;;;6.76;62.60;99953.48;113700;1192;96537;-72
2021/11/06 03:50:23;;;;;;;22.80;10.00;;;;;;;6.77;62.71;99956.04;113809;1193;98916;-71
2021/11/06 03:52:53;;;;;;;25.10;10.40;;;;;;;6.79;62.81;99958.08;113736;1192;112478;-73
2021/11/06 03:55:22;;;;;;;22.00;9.90;;;;;;;6.79;62.81;99959.30;113801;1193;98995;-71
2021/11/06 03:57:50;;;;;;;23.90;10.20;;;;;;;6.79;62.77;99958.60;113775;1193;107534;-71
2021/11/06 04:00:19;;;;;;;21.70;10.30;;;;;;;6.79;62.76;99958.97;113764;1193;97785;-72
2021/11/06 04:02:49;;;;;;;21.60;10.40;;;;;;;6.80;62.91;99956.65;113745;1193;100082;-73
2021/11/06 04:05:18;;;;;;;22.60;10.40;;;;;;;6.80;62.68;99961.20;113787;1193;114425;-72
2021/11/06 04:07:47;;;;;;;23.40;10.40;;;;;;;6.80;62.72;99958.54;113812;1192;98998;-72
2021/11/06 04:10:14;;;;;;;23.00;9.80;;;;;;;6.80;62.82;99955.92;113759;1193;107491;-71
2021/11/06 04:12:45;;;;;;;21.90;10.30;;;;;;;6.78;62.83;99958.15;113741;1184;98904;-72
2021/11/06 04:15:15;;;;;;;22.40;11.00;;;;;;;6.76;62.91;99961.55;113766;1193;98894;-72
2021/11/06 04:17:45;;;;;;;24.20;10.50;;;;;;;6.77;62.93;99961.00;113717;1192;113658;-71
2021/11/06 04:20:14;;;;;;;22.70;10.70;;;;;;;6.78;62.94;99959.71;113749;1193;99022;-71
2021/11/06 04:22:43;;;;;;;22.40;10.60;;;;;;;6.79;62.83;99955.98;113599;1192;108020;-73
2021/11/06 04:25:13;;;;;;;24.80;11.70;;;;;;;6.78;63.00;99958.99;113534;1192;96468;-71
2021/11/06 04:27:41;;;;;;;23.10;11.40;;;;;;;6.79;62.95;99957.91;113689;1192;98988;-71
2021/11/06 04:30:09;;;;;;;22.90;10.90;;;;;;;6.79;62.93;99958.25;113647;1192;112449;-72
2021/11/06 04:32:37;;;;;;;24.70;10.80;;;;;;;6.79;63.09;99961.26;113638;1184;98998;-72
2021/11/06 04:35:08;;;;;;;24.00;11.70;;;;;;;6.79;63.01;99960.54;113660;1192;107468;-72
2021/11/06 04:37:39;;;;;;;24.30;11.20;;;;;;;6.81;63.12;99964.70;113555;1192;99615;-72
2021/11/06 04:40:12;;;;;;;25.90;13.00;;;;;;;6.82;63.27;99967.14;113668;1192;98894;-74
2021/11/06 04:42:43;;;;;;;23.10;11.40;;;;;;;6.82;63.43;99969.92;113683;1192;113462;-73
2021/11/06 04:45:14;;;;;;;25.40;11.50;;;;;;;6.84;63.26;99968.11;113691;1192;98955;-72
2021/11/06 04:47:42;;;;;;;23.90;11.70;;;;;;;6.84;63.39;99972.50;113649;1192;107549;-72
2021/11/06 04:50:13;;;;;;;24.20;12.00;;;;;;;6.86;63.47;99972.59;113539;1194;97821;-71
2021/11/06 04:52:43;;;;;;;22.80;10.70;;;;;;;6.88;63.30;99976.05;113403;1192;99049;-73
2021/11/06 04:55:13;;;;;;;22.80;11.60;;;;;;;6.89;63.47;99976.72;113393;1192;112098;-73
2021/11/06 04:57:44;;;;;;;24.60;11.00;;;;;;;6.90;63.58;99976.84;113268;1193;98847;-73
2021/11/06 05:00:15;;;;;;;21.30;10.60;;;;;;;6.91;63.31;99984.38;113388;1193;107529;-72
2021/11/06 05:02:44;;;;;;;22.80;10.40;;;;;;;6.92;63.57;99983.62;113455;1192;100106;-72
2021/11/06 05:05:13;;;;;;;22.60;10.90;;;;;;;6.94;63.48;99985.14;113555;1193;97034;-71
2021/11/06 05:07:41;;;;;;;22.10;10.40;;;;;;;6.95;63.54;99986.48;113725;1193;112538;-73
2021/11/06 05:10:09;;;;;;;21.60;9.80;;;;;;;6.97;63.56;99987.66;113632;1193;98995;-73
2021/11/06 05:12:39;;;;;;;21.00;9.90;;;;;;;6.97;63.49;99988.51;113463;1193;107488;-72
2021/11/06 05:15:09;;;;;;;22.50;9.00;;;;;;;6.98;63.66;99992.87;113763;1192;98970;-73
2021/11/06 05:17:38;;;;;;;20.10;8.80;;;;;;;6.99;63.72;99993.19;113605;1193;98992;-72
2021/11/06 05:20:09;;;;;;;22.00;9.30;;;;;;;6.99;63.50;99998.13;113556;1192;112538;-71
2021/11/06 05:22:37;;;;;;;18.20;8.00;;;;;;;6.97;63.67;99999.98;113495;1193;98932;-71
2021/11/06 05:25:09;;;;;;;19.10;8.60;;;;;;;6.96;63.51;100000.91;113321;1193;107936;-71
2021/11/06 05:27:38;;;;;;;20.70;8.40;;;;;;;6.96;63.66;100006.56;113655;1193;97808;-71
2021/11/06 05:30:10;;;;;;;19.90;9.00;;;;;;;6.97;63.38;100010.91;113736;1193;98975;-70
2021/11/06 05:32:39;;;;;;;20.80;8.50;;;;;;;6.98;63.55;100013.52;113536;1193;112284;-71
2021/11/06 05:35:10;;;;;;;18.30;8.50;;;;;;;6.97;63.63;100016.20;113755;1193;98927;-71
2021/11/06 05:37:39;;;;;;;21.40;9.10;;;;;;;6.97;63.77;100015.84;113553;1194;107617;-70
2021/11/06 05:40:09;;;;;;;17.60;7.60;;;;;;;6.99;63.66;100020.73;113528;1193;99075;-71
2021/11/06 05:42:39;;;;;;;18.40;7.20;;;;;;;7.00;63.87;100017.83;113408;1186;96478;-70
2021/11/06 05:45:11;;;;;;;19.00;8.00;;;;;;;7.02;63.58;100017.44;113603;1192;113178;-68
2021/11/06 05:47:39;;;;;;;16.80;7.20;;;;;;;7.02;63.76;100019.35;113697;1193;98998;-70
2021/11/06 05:50:12;;;;;;;17.10;7.00;;;;;;;7.04;63.64;100018.73;113879;1196;107235;-67
2021/11/06 05:52:42;;;;;;;15.20;6.50;;;;;;;7.06;63.84;100018.32;113825;1191;97398;-67
2021/11/06 05:55:14;;;;;;;16.40;7.20;;;;;;;7.07;63.70;100017.55;113916;1192;98948;-68
2021/11/06 05:57:43;;;;;;;12.80;6.20;;;;;;;7.08;63.89;100019.27;113608;1192;112187;-70
2021/11/06 06:00:15;;;;;;;16.70;7.10;;;;;;;7.09;63.81;100018.73;113765;1192;97195;-68
2021/11/06 06:02:43;;;;;;;17.50;7.10;;;;;;;7.06;63.62;100022.70;113747;1193;107423;-70
2021/11/06 06:05:14;;;;;;;17.80;7.30;;;;;;;7.07;63.79;100023.21;113744;1193;98900;-70
2021/11/06 06:07:42;;;;;;;18.00;6.80;;;;;;;7.08;63.86;100024.59;113795;1192;98910;-71
2021/11/06 06:10:15;;;;;;;18.10;7.20;;;;;;;7.09;63.92;100028.95;113774;1193;112107;-72
2021/11/06 06:12:50;;;;;;;17.20;7.10;;;;;;;7.10;63.91;100034.36;113797;1192;98614;-71
2021/11/06 06:15:25;;;;;;;22.10;8.00;;;;;;;7.12;63.92;100036.75;113775;1193;107516;-71
2021/11/06 06:17:56;;;;;;;17.00;7.20;;;;;;;7.14;63.83;100045.32;113808;1192;98982;-72
2021/11/06 06:20:23;;;;;;;17.80;7.50;;;;;;;7.14;64.10;100040.02;113831;1192;96841;-70
2021/11/06 06:22:51;;;;;;;19.30;7.70;;;;;;;7.15;63.91;100048.42;113750;1192;112458;-68
2021/11/06 06:25:19;;;;;;;18.30;7.50;;;;;;;7.18;64.15;100047.27;113783;1192;98893;-71
2021/11/06 06:27:47;;;;;;;20.70;7.00;;;;;;;7.22;64.15;100053.25;113790;1193;107498;-70
2021/11/06 06:30:20;;;;;;;18.70;7.50;;;;;;;7.24;64.12;100055.11;113759;1193;96402;-72
2021/11/06 06:32:47;;;;;;;17.60;6.80;;;;;;;7.26;64.22;100057.83;113788;1193;96371;-71
2021/11/06 06:35:18;;;;;;;19.20;7.90;;;;;;;7.28;63.94;100055.11;113580;1193;112534;-70
2021/11/06 06:37:46;;;;;;;17.90;7.50;;;;;;;7.31;64.20;100057.65;113696;1193;97322;-72
2021/11/06 06:40:15;;;;;;;18.40;7.50;;;;;;;7.35;64.21;100062.94;113657;1193;107318;-72
2021/11/06 06:42:43;;;;;;;15.60;6.40;;;;;;;7.38;64.06;100063.51;113521;1193;99005;-71
2021/11/06 06:45:11;;;;;;;16.40;6.20;;;;;;;7.41;64.01;100069.38;113773;1192;99055;-71
2021/11/06 06:47:42;;;;;;;16.30;7.30;;;;;;;7.44;64.21;100069.61;113897;1192;112510;-71
2021/11/06 06:50:13;;;;;;;16.00;6.30;;;;;;;7.48;64.19;100071.55;113929;1193;96353;-72
2021/11/06 06:52:44;;;;;;;16.10;6.90;;;;;;;7.52;64.19;100075.45;113674;1192;106335;-75
2021/11/06 06:55:12;;;;;;;16.70;6.60;;;;;;;7.56;64.28;100076.85;113828;1192;98894;-73
2021/11/06 06:57:41;;;;;;;13.80;5.40;;;;;;;7.60;64.21;100079.32;113738;1193;98895;-72
2021/11/06 07:00:13;;;;;;;15.60;6.30;;;;;;;7.64;64.18;100081.63;113803;1193;112471;-72
2021/11/06 07:02:41;;;;;;;14.10;5.70;;;;;;;7.68;64.27;100082.36;113875;1192;98958;-72
2021/11/06 07:05:11;;;;;;;13.10;5.80;;;;;;;7.72;64.24;100083.25;113604;1193;107487;-72
2021/11/06 07:07:39;;;;;;;13.70;5.80;;;;;;;7.77;64.18;100087.58;113789;1193;97795;-73
2021/11/06 07:10:08;;;;;;;13.60;5.40;;;;;;;7.81;64.35;100084.92;113702;1192;98959;-74
2021/11/06 07:12:36;;;;;;;10.70;4.90;;;;;;;7.84;64.28;100083.71;113497;1193;112455;-74
2021/11/06 07:15:08;;;;;;;11.70;5.20;;;;;;;7.90;64.27;100088.78;113584;1193;97945;-71
2021/11/06 07:17:35;;;;;;;11.00;4.80;;;;;;;7.93;64.19;100088.29;113595;1192;107524;-71
2021/11/06 07:20:08;;;;;;;11.80;5.20;;;;;;;7.97;64.38;100090.75;113523;1193;98931;-71
2021/11/06 07:22:40;;;;;;;12.60;5.10;;;;;;;8.02;64.34;100089.65;113703;1192;98894;-74
2021/11/06 07:25:10;;;;;;;14.30;5.80;;;;;;;8.08;64.35;100086.20;113589;1192;112593;-71
2021/11/06 07:27:41;;;;;;;14.20;5.50;;;;;;;8.12;64.35;100088.67;113388;1192;98947;-71
2021/11/06 07:30:12;;;;;;;14.30;5.70;;;;;;;8.18;64.33;100091.90;113420;1193;107567;-71
2021/11/06 07:32:40;;;;;;;18.70;6.20;;;;;;;8.24;64.43;100092.34;113472;1193;98866;-68
2021/11/06 07:35:11;;;;;;;16.50;6.60;;;;;;;8.32;64.45;100090.20;113379;1193;96447;-70
2021/11/06 07:37:39;;;;;;;15.30;6.30;;;;;;;8.37;64.45;100090.00;113750;1193;112592;-71
2021/11/06 07:40:09;;;;;;;13.40;5.50;;;;;;;8.41;64.41;100095.25;113285;1193;97320;-66
2021/11/06 07:42:42;;;;;;;12.40;4.80;;;;;;;8.48;64.35;100091.94;113285;1193;108814;-68
2021/11/06 07:45:16;;;;;;;12.60;5.10;;;;;;;8.54;64.37;100096.11;113326;1193;98936;-68
2021/11/06 07:47:46;;;;;;;10.70;4.80;;;;;;;8.61;64.41;100092.73;113353;1197;99065;-70
2021/11/06 07:50:15;;;;;;;12.90;4.80;;;;;;;8.69;64.40;100093.83;113611;1193;112535;-69
2021/11/06 07:52:43;;;;;;;17.60;5.90;;;;;;;8.71;64.35;100098.98;113463;1193;97828;-68
2021/11/06 07:55:11;;;;;;;11.30;4.70;;;;;;;8.75;64.39;100097.04;113233;1193;108517;-68
2021/11/06 07:57:41;;;;;;;13.90;5.40;;;;;;;8.83;64.41;100100.20;114125;1193;97742;-68
2021/11/06 08:00:14;;;;;;;12.40;5.70;;;;;;;8.91;64.43;100102.27;113543;1193;96363;-65
2021/11/06 08:02:42;;;;;;;12.60;4.60;;;;;;;9.01;64.37;100101.08;113422;1193;112546;-65
2021/11/06 08:05:13;;;;;;;14.10;5.50;;;;;;;9.10;64.39;100107.73;113710;1193;98983;-69
2021/11/06 08:07:42;;;;;;;12.20;5.30;;;;;;;9.17;64.38;100107.05;113761;1192;108202;-67
2021/11/06 08:10:13;;;;;;;11.80;5.10;;;;;;;9.17;64.32;100109.31;113879;1192;99051;-67
2021/11/06 08:12:42;;;;;;;15.30;5.80;;;;;;;9.18;64.29;100110.70;113773;1193;98920;-67
2021/11/06 08:15:15;;;;;;;15.20;5.60;;;;;;;9.14;64.30;100113.71;113784;1192;112867;-68
2021/11/06 08:17:43;;;;;;;11.80;5.20;;;;;;;9.13;64.32;100112.38;113774;1192;98967;-68
2021/11/06 08:20:13;;;;;;;12.50;5.20;;;;;;;9.13;64.30;100114.85;113811;1192;108103;-66
2021/11/06 08:22:44;;;;;;;12.00;5.20;;;;;;;9.13;64.29;100112.19;113514;1193;99008;-69
2021/11/06 08:25:16;;;;;;;11.40;5.20;;;;;;;9.13;64.29;100116.79;113577;1192;98919;-68
2021/11/06 08:27:48;;;;;;;12.10;4.70;;;;;;;9.14;64.27;100118.16;113617;1192;112576;-70
2021/11/06 08:30:19;;;;;;;13.00;4.60;;;;;;;9.18;64.22;100117.39;113603;1192;97874;-70
2021/11/06 08:32:53;;;;;;;11.40;5.20;;;;;;;9.26;64.09;100118.63;113325;1178;108092;-68
2021/11/06 08:35:25;;;;;;;14.20;5.40;;;;;;;9.36;64.30;100118.08;113696;1192;98988;-69
2021/11/06 08:37:54;;;;;;;12.40;5.40;;;;;;;9.47;64.26;100121.08;113715;1193;98974;-68
2021/11/06 08:40:22;;;;;;;11.70;5.40;;;;;;;9.56;64.24;100124.15;113577;1193;112471;-69
2021/11/06 08:42:51;;;;;;;13.10;5.30;;;;;;;9.60;64.26;100128.58;113610;1192;98900;-68
2021/11/06 08:45:20;;;;;;;14.40;5.30;;;;;;;9.61;64.16;100126.06;113689;1193;106063;-69
2021/11/06 08:47:49;;;;;;;13.60;5.30;;;;;;;9.62;64.19;100134.66;113631;1192;99000;-70
2021/11/06 08:50:25;;;;;;;13.80;5.50;;;;;;;9.62;64.13;100137.31;113752;1193;98982;-66
2021/11/06 08:52:56;;;;;;;11.80;4.80;;;;;;;9.64;64.03;100137.04;113378;1193;112260;-66
2021/11/06 08:55:26;;;;;;;13.20;5.50;;;;;;;9.69;64.02;100139.81;113781;1192;98905;-68
2021/11/06 08:58:01;;;;;;;12.00;5.40;;;;;;;9.76;64.10;100143.89;113513;1193;107578;-63
2021/11/06 09:00:39;;;;;;;13.60;6.00;;;;;;;9.79;64.01;100144.98;113861;1193;99606;-66
2021/11/06 09:03:20;;;;;;;16.70;6.60;;;;;;;9.76;63.92;100151.16;113929;1193;98866;-68
2021/11/06 09:05:52;;;;;;;15.40;6.90;;;;;;;9.72;63.82;100153.46;113831;1193;113044;-66
2021/11/06 09:08:32;;;;;;;18.10;7.00;;;;;;;9.70;63.77;100151.98;113860;1187;98909;-65
2021/11/06 09:11:07;;;;;;;15.70;6.90;;;;;;;9.68;63.75;100157.02;113861;1193;108017;-66
2021/11/06 09:13:36;;;;;;;15.10;6.60;;;;;;;9.71;63.75;100157.41;113822;1192;99005;-67
2021/11/06 09:16:07;;;;;;;15.20;6.50;;;;;;;9.76;63.76;100159.29;113351;1193;99036;-67
2021/11/06 09:18:38;;;;;;;13.30;6.00;;;;;;;9.80;63.64;100154.29;113401;1193;113111;-67
2021/11/06 09:21:10;;;;;;;15.00;6.20;;;;;;;9.86;63.58;100147.78;113390;1193;99018;-67
2021/11/06 09:23:40;;;;;;;14.30;6.40;;;;;;;9.98;63.67;100145.23;113439;1193;107614;-68
2021/11/06 09:26:10;;;;;;;16.10;6.70;;;;;;;10.13;63.50;100144.96;113398;1193;99010;-69
2021/11/06 09:28:40;;;;;;;14.80;6.80;;;;;;;10.23;63.47;100143.34;113465;1193;96476;-69
2021/11/06 09:31:12;;;;;;;14.90;6.40;;;;;;;10.34;63.53;100135.16;113486;1193;112596;-68
2021/11/06 09:33:43;;;;;;;15.00;6.70;;;;;;;10.44;63.37;100137.09;113463;1193;98998;-63
2021/11/06 09:36:14;;;;;;;16.70;7.20;;;;;;;10.52;63.21;100140.90;113812;1192;107338;-67
2021/11/06 09:38:42;;;;;;;18.10;7.30;;;;;;;10.57;63.31;100143.69;113886;1192;96390;-67
2021/11/06 09:41:16;;;;;;;16.70;7.40;;;;;;;10.64;63.21;100143.66;113517;1193;98910;-66
2021/11/06 09:43:47;;;;;;;14.30;6.40;;;;;;;10.72;63.13;100143.56;113405;1193;113431;-66
2021/11/06 09:46:17;;;;;;;15.50;6.80;;;;;;;10.89;63.22;100139.95;113381;1193;98892;-66
2021/11/06 09:48:49;;;;;;;16.60;7.30;;;;;;;11.03;62.98;100134.34;113383;1193;107717;-66
2021/11/06 09:51:20;;;;;;;18.60;8.30;;;;;;;11.09;62.97;100134.73;113436;1193;98940;-66
2021/11/06 09:53:54;;;;;;;16.70;7.30;;;;;;;11.06;62.82;100128.52;113307;1193;98906;-66
2021/11/06 09:56:29;;;;;;;16.80;7.20;;;;;;;11.06;62.73;100127.83;113435;1193;112446;-67
2021/11/06 09:59:02;;;;;;;17.00;7.70;;;;;;;10.97;62.54;100122.29;113396;1197;98972;-66
2021/11/06 10:01:33;;;;;;;15.60;6.40;;;;;;;10.75;62.18;100119.09;113406;1193;107499;-67
2021/11/06 10:04:08;;;;;;;15.40;6.20;;;;;;;10.64;62.31;100123.04;113407;1193;99000;-69
2021/11/06 10:06:45;;;;;;;14.30;6.00;;;;;;;10.71;62.47;100125.17;113447;1193;99029;-69
2021/11/06 10:09:17;;;;;;;15.00;5.60;;;;;;;10.73;62.38;100123.98;113491;1193;112526;-68
2021/11/06 10:11:53;;;;;;;16.50;6.50;;;;;;;10.68;62.22;100122.30;113570;1193;98900;-68
2021/11/06 10:14:26;;;;;;;17.30;6.50;;;;;;;10.61;62.16;100123.27;113510;1193;108044;-69
2021/11/06 10:16:59;;;;;;;10.70;5.20;;;;;;;10.64;62.15;100123.39;113401;1193;98896;-70
2021/11/06 10:19:33;;;;;;;10.60;4.50;;;;;;;10.63;62.06;100119.03;113579;1193;96501;-67
2021/11/06 10:22:15;;;;;;;13.00;4.80;;;;;;;10.67;62.06;100119.51;113520;1193;112518;-65
2021/11/06 10:24:59;;;;;;;13.70;5.80;;;;;;;10.83;62.02;100120.76;113423;1193;98988;-66
2021/11/06 10:27:33;;;;;;;14.50;5.50;;;;;;;10.96;61.82;100116.66;113663;1193;108106;-65
2021/11/06 10:30:24;;;;;;;12.60;5.10;;;;;;;11.11;61.89;100115.45;113872;1193;99022;-64
2021/11/06 10:33:05;;;;;;;11.90;4.60;;;;;;;11.25;61.61;100106.78;113872;1193;98931;-67
2021/11/06 10:35:46;;;;;;;10.50;4.70;;;;;;;11.24;61.43;100105.98;113700;1192;113084;-69
2021/11/06 10:38:22;;;;;;;9.80;4.60;;;;;;;11.31;61.50;100102.39;113441;1193;96691;-69
2021/11/06 10:40:56;;;;;;;13.00;4.80;;;;;;;11.36;61.40;100101.76;113460;1193;107553;-70
2021/11/06 10:43:27;;;;;;;12.00;4.70;;;;;;;11.44;61.46;100096.10;113414;1193;99039;-68
2021/11/06 10:45:59;;;;;;;10.20;4.20;;;;;;;11.52;61.31;100089.79;113721;1193;99036;-69
2021/11/06 10:48:33;;;;;;;10.00;4.40;;;;;;;11.51;61.41;100085.40;113757;1192;112519;-67
2021/11/06 10:51:08;;;;;;;8.40;3.90;;;;;;;11.53;61.12;100082.97;114071;1192;96730;-68
2021/11/06 10:53:58;;;;;;;9.80;4.20;;;;;;;11.56;61.16;100081.19;113563;1193;107582;-70
2021/11/06 10:56:41;;;;;;;12.40;5.20;;;;;;;11.56;60.93;100079.41;113824;1192;98935;-69
2021/11/06 10:59:12;;;;;;;;;;;;;;;11.41;60.64;100079.39;114380;1193;98539;-68
2021/11/06 11:01:47;;;;;;;11.70;4.60;;;;;;;11.29;60.64;100076.95;115346;1192;113326;-67
2021/11/06 11:04:18;;;;;;;9.10;4.10;;;;;;;11.14;60.34;100071.77;114180;1193;97509;-69
2021/11/06 11:06:53;;;;;;;12.80;4.80;;;;;;;11.08;60.38;100074.80;113346;1193;108088;-67
2021/11/06 11:09:27;;;;;;;9.70;4.00;;;;;;;11.04;60.26;100078.19;113686;1192;99600;-70
2021/11/06 11:12:01;;;;;;;11.90;4.10;;;;;;;10.97;60.03;100074.86;113362;1192;96530;-66
2021/11/06 11:14:32;;;;;;;11.60;4.60;;;;;;;10.96;60.06;100067.69;113741;1193;111782;-66
2021/11/06 11:17:08;;;;;;;10.60;4.50;;;;;;;10.99;60.16;100071.58;113890;1192;99635;-67
2021/11/06 11:19:44;;;;;;;9.50;4.20;;;;;;;10.98;59.88;100063.10;113430;1192;108094;-67
2021/11/06 11:22:29;;;;;;;11.80;4.20;;;;;;;10.92;59.93;100061.55;113522;1193;99019;-66
2021/11/06 11:25:00;;;;;;;9.90;4.10;;;;;;;10.83;59.77;100059.20;113465;1193;97931;-68
2021/11/06 11:27:47;;;;;;;8.60;3.70;;;;;;;10.74;59.69;100058.66;113566;1192;112391;-70
2021/11/06 11:30:15;;;;;;;11.10;3.90;;;;;;;10.64;59.52;100059.39;113759;1184;97479;-70